createdAt,value
2019-05-09T00:00:48.779Z,0
2019-05-09T00:02:03.321Z,0
2019-05-09T00:03:13.891Z,0
2019-05-09T00:04:25.555Z,0
2019-05-09T00:05:36.082Z,0
2019-05-09T00:06:47.655Z,0
2019-05-09T00:07:58.032Z,0
2019-05-09T00:09:08.623Z,0
2019-05-09T00:10:19.079Z,0
2019-05-09T00:11:33.503Z,0
2019-05-09T00:12:43.785Z,0
2019-05-09T00:13:56.085Z,0
2019-05-09T00:15:09.159Z,0
2019-05-09T00:16:23.462Z,0
2019-05-09T00:17:33.850Z,0
2019-05-09T00:18:46.432Z,0
2019-05-09T00:19:56.132Z,0
2019-05-09T00:21:06.649Z,0
2019-05-09T00:22:18.273Z,0
2019-05-09T00:23:28.798Z,0
2019-05-09T00:24:40.164Z,0
2019-05-09T00:25:50.582Z,0
2019-05-09T00:27:03.773Z,0
2019-05-09T00:28:15.969Z,0
2019-05-09T00:29:26.812Z,0
2019-05-09T00:30:38.002Z,0
2019-05-09T00:31:48.378Z,0
2019-05-09T00:32:57.993Z,0
2019-05-09T00:34:09.056Z,0
2019-05-09T00:35:23.193Z,0
2019-05-09T00:36:33.492Z,0
2019-05-09T00:37:45.565Z,0
2019-05-09T00:38:56.152Z,0
2019-05-09T00:40:08.765Z,0
2019-05-09T00:41:21.057Z,0
2019-05-09T00:42:33.213Z,0
2019-05-09T00:43:45.986Z,0
2019-05-09T00:44:58.058Z,0
2019-05-09T00:46:09.131Z,0
2019-05-09T00:47:20.200Z,0
2019-05-09T00:48:33.643Z,0
2019-05-09T00:49:45.854Z,0
2019-05-09T00:50:56.909Z,0
2019-05-09T00:52:08.389Z,0
2019-05-09T00:53:18.640Z,0
2019-05-09T00:54:28.943Z,0
2019-05-09T00:55:40.492Z,0
2019-05-09T00:56:50.840Z,0
2019-05-09T00:58:04.159Z,0
2019-05-09T00:59:15.719Z,0
2019-05-09T01:00:26.701Z,0
2019-05-09T01:01:38.970Z,0
2019-05-09T01:02:50.414Z,0
2019-05-09T01:04:00.733Z,0
2019-05-09T01:05:13.190Z,0
2019-05-09T01:06:24.082Z,0
2019-05-09T01:07:36.144Z,0
2019-05-09T01:08:46.663Z,0
2019-05-09T01:09:56.795Z,0
2019-05-09T01:11:24.182Z,0
2019-05-09T01:12:36.518Z,0
2019-05-09T01:13:48.268Z,0
2019-05-09T01:14:58.433Z,0
2019-05-09T01:16:09.388Z,0
2019-05-09T01:17:20.864Z,0
2019-05-09T01:18:35.546Z,0
2019-05-09T01:19:45.715Z,0
2019-05-09T01:20:55.840Z,0
2019-05-09T01:22:06.254Z,0
2019-05-09T01:23:16.816Z,0
2019-05-09T01:24:28.094Z,0
2019-05-09T01:25:40.001Z,0
2019-05-09T01:26:50.489Z,0
2019-05-09T01:28:00.639Z,0
2019-05-09T01:29:13.654Z,0
2019-05-09T01:30:24.246Z,0
2019-05-09T01:31:35.801Z,0
2019-05-09T01:32:48.113Z,0
2019-05-09T01:34:00.312Z,0
2019-05-09T01:35:12.949Z,0
2019-05-09T01:36:25.983Z,0
2019-05-09T01:37:36.661Z,0
2019-05-09T01:38:47.863Z,0
2019-05-09T01:39:58.259Z,0
2019-05-09T01:41:22.749Z,0
2019-05-09T01:42:36.213Z,0
2019-05-09T01:43:46.744Z,0
2019-05-09T01:44:58.124Z,0
2019-05-09T01:46:08.436Z,0
2019-05-09T01:47:18.920Z,0
2019-05-09T01:48:30.640Z,0
2019-05-09T01:49:43.128Z,0
2019-05-09T01:50:53.717Z,0
2019-05-09T01:52:05.850Z,0
2019-05-09T01:53:18.154Z,0
2019-05-09T01:54:28.590Z,0
2019-05-09T01:55:38.790Z,0
2019-05-09T01:56:50.298Z,0
2019-05-09T01:58:03.186Z,0
2019-05-09T01:59:13.636Z,0
2019-05-09T02:00:26.255Z,0
2019-05-09T02:01:36.892Z,0
2019-05-09T02:02:48.151Z,0
2019-05-09T02:03:58.540Z,0
2019-05-09T02:05:08.687Z,0
2019-05-09T02:06:20.754Z,0
2019-05-09T02:07:30.717Z,0
2019-05-09T02:08:43.714Z,0
2019-05-09T02:09:54.058Z,0
2019-05-09T02:11:06.341Z,0
2019-05-09T02:12:16.637Z,0
2019-05-09T02:13:27.969Z,0
2019-05-09T02:14:39.207Z,0
2019-05-09T02:15:50.622Z,0
2019-05-09T02:17:03.012Z,0
2019-05-09T02:18:16.192Z,0
2019-05-09T02:19:26.542Z,0
2019-05-09T02:20:38.110Z,0
2019-05-09T02:21:48.656Z,0
2019-05-09T02:22:59.121Z,0
2019-05-09T02:24:10.416Z,0
2019-05-09T02:25:20.940Z,0
2019-05-09T02:26:33.245Z,0
2019-05-09T02:27:43.616Z,0
2019-05-09T02:28:56.230Z,0
2019-05-09T02:30:10.453Z,0
2019-05-09T02:31:26.676Z,0
2019-05-09T02:32:39.349Z,0
2019-05-09T02:33:54.053Z,0
2019-05-09T02:35:07.442Z,0
2019-05-09T02:36:21.509Z,0
2019-05-09T02:37:33.581Z,0
2019-05-09T02:38:48.627Z,0
2019-05-09T02:40:01.666Z,0
2019-05-09T02:41:13.424Z,0
2019-05-09T02:42:28.058Z,0
2019-05-09T02:43:41.366Z,0
2019-05-09T02:44:54.125Z,0
2019-05-09T02:46:09.641Z,0
2019-05-09T02:47:22.772Z,0
2019-05-09T02:48:33.803Z,0
2019-05-09T02:49:48.567Z,0
2019-05-09T02:51:00.109Z,0
2019-05-09T02:52:13.502Z,0
2019-05-09T02:53:28.832Z,0
2019-05-09T02:54:41.722Z,0
2019-05-09T02:55:54.341Z,0
2019-05-09T02:57:05.357Z,0
2019-05-09T02:58:20.256Z,0
2019-05-09T02:59:34.084Z,0
2019-05-09T03:00:48.172Z,0
2019-05-09T03:02:01.050Z,0
2019-05-09T03:03:14.184Z,0
2019-05-09T03:04:28.354Z,0
2019-05-09T03:05:40.920Z,0
2019-05-09T03:06:53.932Z,0
2019-05-09T03:08:08.621Z,0
2019-05-09T03:09:21.493Z,0
2019-05-09T03:10:34.260Z,0
2019-05-09T03:11:48.487Z,0
2019-05-09T03:13:01.907Z,0
2019-05-09T03:14:14.085Z,0
2019-05-09T03:15:28.683Z,0
2019-05-09T03:16:42.232Z,0
2019-05-09T03:17:54.553Z,0
2019-05-09T03:19:09.023Z,0
2019-05-09T03:20:20.642Z,0
2019-05-09T03:21:32.423Z,0
2019-05-09T03:22:44.136Z,0
2019-05-09T03:23:58.777Z,0
2019-05-09T03:25:11.579Z,0
2019-05-09T03:26:24.215Z,0
2019-05-09T03:27:38.847Z,0
2019-05-09T03:28:51.801Z,0
2019-05-09T03:30:03.770Z,0
2019-05-09T03:31:19.627Z,0
2019-05-09T03:32:32.247Z,5
2019-05-09T03:33:50.001Z,5
2019-05-09T03:35:00.238Z,5
2019-05-09T03:36:10.287Z,5
2019-05-09T03:37:22.350Z,5
2019-05-09T03:38:32.981Z,5
2019-05-09T03:39:44.855Z,5
2019-05-09T03:40:57.994Z,5
2019-05-09T03:42:10.217Z,10
2019-05-09T03:43:20.850Z,10
2019-05-09T03:44:32.943Z,10
2019-05-09T03:45:44.579Z,10
2019-05-09T03:46:58.058Z,10
2019-05-09T03:48:09.785Z,10
2019-05-09T03:49:20.479Z,10
2019-05-09T03:50:32.738Z,10
2019-05-09T03:51:45.000Z,10
2019-05-09T03:52:57.945Z,10
2019-05-09T03:54:10.144Z,10
2019-05-09T03:55:22.602Z,10
2019-05-09T03:56:34.272Z,10
2019-05-09T03:57:44.236Z,10
2019-05-09T03:58:54.672Z,10
2019-05-09T04:00:07.656Z,15
2019-05-09T04:01:22.365Z,15
2019-05-09T04:02:33.016Z,15
2019-05-09T04:03:45.042Z,15
2019-05-09T04:04:57.710Z,15
2019-05-09T04:06:13.224Z,20
2019-05-09T04:07:23.484Z,25
2019-05-09T04:08:37.594Z,30
2019-05-09T04:09:50.467Z,30
2019-05-09T04:11:03.308Z,30
2019-05-09T04:12:14.480Z,35
2019-05-09T04:13:25.242Z,40
2019-05-09T04:14:39.886Z,45
2019-05-09T04:15:50.202Z,60
2019-05-09T04:17:02.258Z,70
2019-05-09T04:18:13.062Z,70
2019-05-09T04:19:24.778Z,70
2019-05-09T04:20:37.699Z,75
2019-05-09T04:21:48.378Z,75
2019-05-09T04:23:01.856Z,80
2019-05-09T04:24:13.338Z,75
2019-05-09T04:25:27.126Z,75
2019-05-09T04:26:38.010Z,70
2019-05-09T04:27:50.377Z,65
2019-05-09T04:29:02.512Z,60
2019-05-09T04:30:18.217Z,60
2019-05-09T04:31:30.438Z,60
2019-05-09T04:32:42.462Z,65
2019-05-09T04:33:54.481Z,70
2019-05-09T04:35:04.775Z,75
2019-05-09T04:36:15.567Z,75
2019-05-09T04:37:28.077Z,80
2019-05-09T04:38:42.299Z,80
2019-05-09T04:39:59.334Z,80
2019-05-09T04:41:16.219Z,80
2019-05-09T04:42:34.961Z,80
2019-05-09T04:43:51.115Z,75
2019-05-09T04:45:17.653Z,70
2019-05-09T04:46:34.934Z,70
2019-05-09T04:47:51.992Z,70
2019-05-09T04:49:10.563Z,70
2019-05-09T04:50:32.771Z,70
2019-05-09T04:51:47.894Z,80
2019-05-09T04:53:00.402Z,90
2019-05-09T04:54:12.151Z,95
2019-05-09T04:55:23.023Z,95
2019-05-09T04:56:35.093Z,90
2019-05-09T04:57:45.471Z,80
2019-05-09T04:58:58.293Z,80
2019-05-09T05:00:12.300Z,85
2019-05-09T05:01:24.485Z,85
2019-05-09T05:02:34.615Z,80
2019-05-09T05:03:44.799Z,75
2019-05-09T05:04:55.207Z,65
2019-05-09T05:06:07.490Z,65
2019-05-09T05:07:18.141Z,65
2019-05-09T05:08:28.538Z,70
2019-05-09T05:09:40.446Z,75
2019-05-09T05:10:52.493Z,75
2019-05-09T05:12:05.039Z,75
2019-05-09T05:13:34.574Z,65
2019-05-09T05:14:47.563Z,60
2019-05-09T05:15:57.795Z,60
2019-05-09T05:17:20.531Z,60
2019-05-09T05:18:32.867Z,65
2019-05-09T05:19:47.365Z,70
2019-05-09T05:20:59.940Z,80
2019-05-09T05:22:12.125Z,85
2019-05-09T05:23:23.045Z,100
2019-05-09T05:24:34.971Z,110
2019-05-09T05:25:47.014Z,120
2019-05-09T05:27:00.271Z,130
2019-05-09T05:28:11.061Z,135
2019-05-09T05:29:22.307Z,140
2019-05-09T05:30:33.263Z,140
2019-05-09T05:31:43.659Z,130
2019-05-09T05:32:57.839Z,120
2019-05-09T05:34:10.625Z,110
2019-05-09T05:35:22.648Z,105
2019-05-09T05:36:35.062Z,110
2019-05-09T05:37:47.685Z,115
2019-05-09T05:38:58.414Z,120
2019-05-09T05:40:10.024Z,125
2019-05-09T05:41:20.835Z,135
2019-05-09T05:42:33.168Z,150
2019-05-09T05:43:55.151Z,160
2019-05-09T05:45:07.457Z,165
2019-05-09T05:46:18.162Z,175
2019-05-09T05:47:33.210Z,180
2019-05-09T05:48:45.457Z,185
2019-05-09T05:49:57.726Z,185
2019-05-09T05:51:08.171Z,185
2019-05-09T05:52:18.557Z,180
2019-05-09T05:53:30.258Z,170
2019-05-09T05:54:40.351Z,155
2019-05-09T05:55:54.588Z,150
2019-05-09T05:57:05.083Z,145
2019-05-09T05:58:17.956Z,145
2019-05-09T05:59:30.920Z,145
2019-05-09T06:00:42.620Z,140
2019-05-09T06:01:55.023Z,135
2019-05-09T06:03:08.472Z,125
2019-05-09T06:04:20.961Z,115
2019-05-09T06:05:32.411Z,110
2019-05-09T06:06:44.716Z,110
2019-05-09T06:07:57.616Z,115
2019-05-09T06:09:08.326Z,120
2019-05-09T06:10:20.967Z,130
2019-05-09T06:11:32.945Z,145
2019-05-09T06:12:45.006Z,160
2019-05-09T06:14:18.377Z,170
2019-05-09T06:15:31.199Z,180
2019-05-09T06:16:42.618Z,185
2019-05-09T06:17:53.084Z,190
2019-05-09T06:19:05.670Z,200
2019-05-09T06:20:20.180Z,210
2019-05-09T06:21:30.761Z,210
2019-05-09T06:22:42.995Z,220
2019-05-09T06:23:54.868Z,225
2019-05-09T06:25:09.001Z,235
2019-05-09T06:26:21.207Z,240
2019-05-09T06:27:32.106Z,250
2019-05-09T06:28:42.502Z,250
2019-05-09T06:29:54.856Z,250
2019-05-09T06:31:07.516Z,245
2019-05-09T06:32:18.778Z,230
2019-05-09T06:33:31.022Z,210
2019-05-09T06:34:47.688Z,195
2019-05-09T06:35:58.836Z,180
2019-05-09T06:37:18.050Z,170
2019-05-09T06:38:30.500Z,165
2019-05-09T06:39:42.392Z,165
2019-05-09T06:40:52.467Z,170
2019-05-09T06:42:04.633Z,175
2019-05-09T06:43:15.268Z,180
2019-05-09T06:44:30.715Z,180
2019-05-09T06:45:48.455Z,175
2019-05-09T06:47:00.919Z,165
2019-05-09T06:48:12.421Z,160
2019-05-09T06:49:40.160Z,155
2019-05-09T06:50:50.818Z,155
2019-05-09T06:52:02.941Z,155
2019-05-09T06:53:15.157Z,160
2019-05-09T06:54:27.837Z,165
2019-05-09T06:55:40.984Z,170
2019-05-09T06:56:52.410Z,175
2019-05-09T06:58:03.382Z,180
2019-05-09T06:59:14.846Z,190
2019-05-09T07:00:25.283Z,205
2019-05-09T07:01:37.541Z,215
2019-05-09T07:02:50.398Z,235
2019-05-09T07:04:02.118Z,255
2019-05-09T07:05:12.246Z,275
2019-05-09T07:06:24.679Z,295
2019-05-09T07:07:37.233Z,305
2019-05-09T07:08:50.049Z,305
2019-05-09T07:10:01.046Z,300
2019-05-09T07:11:12.448Z,290
2019-05-09T07:12:22.967Z,275
2019-05-09T07:13:34.486Z,260
2019-05-09T07:14:53.404Z,245
2019-05-09T07:16:05.424Z,235
2019-05-09T07:17:18.370Z,225
2019-05-09T07:18:30.125Z,220
2019-05-09T07:19:48.380Z,220
2019-05-09T07:21:00.172Z,225
2019-05-09T07:22:11.595Z,235
2019-05-09T07:23:22.603Z,245
2019-05-09T07:24:37.648Z,260
2019-05-09T07:25:47.906Z,265
2019-05-09T07:26:58.405Z,270
2019-05-09T07:28:10.102Z,280
2019-05-09T07:29:22.581Z,285
2019-05-09T07:30:33.900Z,295
2019-05-09T07:31:45.144Z,300
2019-05-09T07:32:57.929Z,300
2019-05-09T07:34:10.900Z,300
2019-05-09T07:35:23.322Z,305
2019-05-09T07:36:34.487Z,315
2019-05-09T07:37:44.923Z,310
2019-05-09T07:38:58.216Z,310
2019-05-09T07:40:08.560Z,315
2019-05-09T07:41:20.299Z,320
2019-05-09T07:42:30.953Z,325
2019-05-09T07:43:43.352Z,335
2019-05-09T07:45:01.657Z,345
2019-05-09T07:46:13.827Z,360
2019-05-09T07:47:24.956Z,370
2019-05-09T07:48:37.828Z,375
2019-05-09T07:49:50.510Z,375
2019-05-09T07:51:02.457Z,380
2019-05-09T07:52:21.080Z,380
2019-05-09T07:53:33.171Z,380
2019-05-09T07:54:44.985Z,380
2019-05-09T07:55:58.157Z,370
2019-05-09T07:57:10.868Z,365
2019-05-09T07:58:25.735Z,360
2019-05-09T07:59:38.865Z,375
2019-05-09T08:00:50.695Z,385
2019-05-09T08:02:03.025Z,380
2019-05-09T08:03:20.565Z,375
2019-05-09T08:04:33.640Z,370
2019-05-09T08:05:47.488Z,360
2019-05-09T08:07:00.213Z,335
2019-05-09T08:08:12.781Z,320
2019-05-09T08:09:23.478Z,315
2019-05-09T08:10:41.023Z,305
2019-05-09T08:11:52.902Z,295
2019-05-09T08:13:03.541Z,295
2019-05-09T08:14:20.069Z,315
2019-05-09T08:15:32.663Z,335
2019-05-09T08:16:47.288Z,360
2019-05-09T08:18:01.093Z,380
2019-05-09T08:19:12.367Z,395
2019-05-09T08:20:24.743Z,385
2019-05-09T08:21:34.470Z,390
2019-05-09T08:23:04.704Z,420
2019-05-09T08:24:15.163Z,445
2019-05-09T08:25:30.216Z,440
2019-05-09T08:26:42.025Z,420
2019-05-09T08:27:53.154Z,395
2019-05-09T08:29:05.576Z,385
2019-05-09T08:30:18.035Z,370
2019-05-09T08:31:30.401Z,370
2019-05-09T08:32:42.612Z,385
2019-05-09T08:33:53.412Z,395
2019-05-09T08:35:04.863Z,395
2019-05-09T08:36:22.383Z,405
2019-05-09T08:37:32.919Z,400
2019-05-09T08:38:43.887Z,395
2019-05-09T08:39:57.720Z,410
2019-05-09T08:41:11.319Z,435
2019-05-09T08:42:24.680Z,465
2019-05-09T08:43:37.526Z,490
2019-05-09T08:44:53.063Z,500
2019-05-09T08:46:04.833Z,475
2019-05-09T08:47:15.101Z,450
2019-05-09T08:48:25.601Z,430
2019-05-09T08:49:37.399Z,410
2019-05-09T08:50:50.743Z,400
2019-05-09T08:52:24.700Z,390
2019-05-09T08:53:38.055Z,380
2019-05-09T08:54:48.609Z,360
2019-05-09T08:56:00.500Z,350
2019-05-09T08:57:12.286Z,350
2019-05-09T08:58:24.684Z,355
2019-05-09T08:59:38.215Z,355
2019-05-09T09:00:51.366Z,350
2019-05-09T09:02:30.704Z,360
2019-05-09T09:03:42.640Z,360
2019-05-09T09:04:53.792Z,355
2019-05-09T09:06:05.031Z,345
2019-05-09T09:07:15.716Z,360
2019-05-09T09:08:28.486Z,395
2019-05-09T09:09:40.333Z,440
2019-05-09T09:10:51.283Z,485
2019-05-09T09:12:03.178Z,490
2019-05-09T09:13:17.453Z,440
2019-05-09T09:14:30.352Z,390
2019-05-09T09:16:28.287Z,360
2019-05-09T09:17:40.875Z,375
2019-05-09T09:18:52.983Z,405
2019-05-09T09:20:07.417Z,445
2019-05-09T09:21:20.664Z,495
2019-05-09T09:22:33.031Z,555
2019-05-09T09:24:00.516Z,615
2019-05-09T09:25:12.416Z,650
2019-05-09T09:26:23.230Z,655
2019-05-09T09:27:34.559Z,580
2019-05-09T09:28:45.318Z,565
2019-05-09T09:29:58.674Z,550
2019-05-09T09:31:12.866Z,555
2019-05-09T09:32:23.844Z,545
2019-05-09T09:33:37.329Z,520
2019-05-09T09:34:48.422Z,500
2019-05-09T09:36:00.441Z,505
2019-05-09T09:37:20.837Z,545
2019-05-09T09:38:32.656Z,595
2019-05-09T09:39:53.700Z,635
2019-05-09T09:41:07.433Z,645
2019-05-09T09:42:22.512Z,650
2019-05-09T09:43:34.874Z,660
2019-05-09T09:44:48.023Z,685
2019-05-09T09:46:23.122Z,675
2019-05-09T09:47:39.296Z,675
2019-05-09T09:48:50.503Z,685
2019-05-09T09:50:05.018Z,710
2019-05-09T09:51:18.541Z,725
2019-05-09T09:52:34.228Z,685
2019-05-09T09:53:45.491Z,690
2019-05-09T09:55:00.562Z,695
2019-05-09T09:56:11.199Z,705
2019-05-09T09:57:23.630Z,740
2019-05-09T09:58:34.587Z,745
2019-05-09T09:59:51.024Z,750
2019-05-09T10:01:08.643Z,805
2019-05-09T10:02:19.712Z,775
2019-05-09T10:03:29.738Z,730
2019-05-09T10:04:42.285Z,700
2019-05-09T10:05:53.469Z,670
2019-05-09T10:07:05.570Z,680
2019-05-09T10:08:23.081Z,645
2019-05-09T10:09:32.815Z,560
2019-05-09T10:10:42.797Z,440
2019-05-09T10:12:00.643Z,365
2019-05-09T10:13:18.472Z,315
2019-05-09T10:14:30.611Z,290
2019-05-09T10:15:40.880Z,270
2019-05-09T10:16:52.676Z,245
2019-05-09T10:18:03.117Z,235
2019-05-09T10:19:15.124Z,225
2019-05-09T10:20:29.120Z,215
2019-05-09T10:21:40.698Z,210
2019-05-09T10:23:23.845Z,215
2019-05-09T10:24:35.323Z,225
2019-05-09T10:25:47.850Z,240
2019-05-09T10:26:57.814Z,270
2019-05-09T10:28:08.658Z,290
2019-05-09T10:29:20.191Z,315
2019-05-09T10:30:30.962Z,340
2019-05-09T10:31:43.626Z,360
2019-05-09T10:32:54.821Z,375
2019-05-09T10:34:05.037Z,390
2019-05-09T10:35:17.681Z,405
2019-05-09T10:36:27.913Z,425
2019-05-09T10:37:41.331Z,455
2019-05-09T10:38:52.682Z,495
2019-05-09T10:40:04.936Z,530
2019-05-09T10:41:18.364Z,560
2019-05-09T10:42:31.005Z,575
2019-05-09T10:43:48.540Z,585
2019-05-09T10:45:00.670Z,600
2019-05-09T10:46:15.473Z,610
2019-05-09T10:47:27.275Z,605
2019-05-09T10:48:38.585Z,580
2019-05-09T10:49:51.203Z,555
2019-05-09T10:51:15.100Z,535
2019-05-09T10:52:28.291Z,510
2019-05-09T10:53:38.184Z,480
2019-05-09T10:54:48.156Z,455
2019-05-09T10:55:58.109Z,425
2019-05-09T10:57:07.856Z,400
2019-05-09T10:58:19.804Z,370
2019-05-09T10:59:30.918Z,340
2019-05-09T11:00:44.377Z,315
2019-05-09T11:01:57.921Z,300
2019-05-09T11:03:08.811Z,275
2019-05-09T11:04:20.472Z,250
2019-05-09T11:05:32.338Z,225
2019-05-09T11:06:45.337Z,200
2019-05-09T11:07:58.735Z,185
2019-05-09T11:09:11.086Z,175
2019-05-09T11:10:41.903Z,160
2019-05-09T11:11:53.287Z,150
2019-05-09T11:13:07.300Z,145
2019-05-09T11:14:39.984Z,145
2019-05-09T11:15:50.509Z,155
2019-05-09T11:17:28.529Z,155
2019-05-09T11:18:38.693Z,145
2019-05-09T11:19:50.839Z,140
2019-05-09T11:21:03.053Z,130
2019-05-09T11:22:15.295Z,135
2019-05-09T11:23:28.993Z,135
2019-05-09T11:24:57.905Z,150
2019-05-09T11:26:08.063Z,170
2019-05-09T11:27:18.674Z,195
2019-05-09T11:28:30.661Z,245
2019-05-09T11:29:41.296Z,295
2019-05-09T11:30:52.507Z,345
2019-05-09T11:32:03.309Z,380
2019-05-09T11:33:15.076Z,440
2019-05-09T11:34:26.112Z,500
2019-05-09T11:35:37.938Z,565
2019-05-09T11:36:49.798Z,660
2019-05-09T11:38:01.192Z,725
2019-05-09T11:39:15.169Z,505
2019-05-09T11:40:25.450Z,405
2019-05-09T11:41:40.825Z,380
2019-05-09T11:42:53.058Z,395
2019-05-09T11:44:04.371Z,435
2019-05-09T11:45:14.956Z,465
2019-05-09T11:46:28.734Z,450
2019-05-09T11:47:53.442Z,470
2019-05-09T11:49:07.981Z,540
2019-05-09T11:50:25.115Z,680
2019-05-09T11:51:38.288Z,525
2019-05-09T11:52:49.045Z,500
2019-05-09T11:54:00.596Z,450
2019-05-09T11:55:35.870Z,415
2019-05-09T11:56:50.508Z,395
2019-05-09T11:58:01.549Z,395
2019-05-09T11:59:12.987Z,395
2019-05-09T12:00:25.316Z,400
2019-05-09T12:01:39.395Z,400
2019-05-09T12:02:52.351Z,425
2019-05-09T12:04:04.984Z,465
2019-05-09T12:05:19.077Z,515
2019-05-09T12:06:31.595Z,575
2019-05-09T12:07:42.801Z,635
2019-05-09T12:08:55.413Z,695
2019-05-09T12:10:07.753Z,745
2019-05-09T12:11:20.805Z,780
2019-05-09T12:12:33.132Z,840
2019-05-09T12:13:45.283Z,1355
2019-05-09T12:15:00.508Z,1415
2019-05-09T12:16:10.482Z,1530
2019-05-09T12:17:21.978Z,1585
2019-05-09T12:18:33.459Z,1675
2019-05-09T12:19:45.404Z,1725
2019-05-09T12:20:59.816Z,1655
2019-05-09T12:22:11.439Z,1810
2019-05-09T12:23:24.801Z,1830
2019-05-09T12:24:38.414Z,1855
2019-05-09T12:25:48.513Z,1945
2019-05-09T12:27:02.935Z,1935
2019-05-09T12:28:15.096Z,1735
2019-05-09T12:29:28.726Z,1760
2019-05-09T12:30:40.439Z,1905
2019-05-09T12:31:52.940Z,1905
2019-05-09T12:33:03.924Z,1745
2019-05-09T12:34:18.887Z,1595
2019-05-09T12:35:29.315Z,1415
2019-05-09T12:36:42.327Z,1275
2019-05-09T12:37:53.203Z,1330
2019-05-09T12:39:08.672Z,1280
2019-05-09T12:40:22.183Z,1145
2019-05-09T12:41:38.383Z,975
2019-05-09T12:42:52.725Z,1020
2019-05-09T12:44:04.804Z,930
2019-05-09T12:45:15.350Z,910
2019-05-09T12:46:25.328Z,770
2019-05-09T12:47:42.095Z,765
2019-05-09T12:48:53.018Z,780
2019-05-09T12:50:08.580Z,795
2019-05-09T12:51:20.923Z,830
2019-05-09T12:52:33.491Z,1015
2019-05-09T12:53:48.383Z,1110
2019-05-09T12:55:00.742Z,1365
2019-05-09T12:56:13.027Z,2710
2019-05-09T12:57:28.793Z,2305
2019-05-09T12:58:38.975Z,1070
2019-05-09T13:00:01.152Z,890
2019-05-09T13:01:12.362Z,910
2019-05-09T13:02:24.849Z,890
2019-05-09T13:03:38.171Z,2395
2019-05-09T13:04:50.080Z,2590
2019-05-09T13:06:02.203Z,2290
2019-05-09T13:07:13.409Z,1305
2019-05-09T13:08:27.566Z,1140
2019-05-09T13:09:39.821Z,1215
2019-05-09T13:10:51.290Z,645
2019-05-09T13:12:02.658Z,505
2019-05-09T13:13:15.689Z,425
2019-05-09T13:14:30.937Z,355
2019-05-09T13:15:43.290Z,310
2019-05-09T13:17:02.320Z,280
2019-05-09T13:18:31.515Z,245
2019-05-09T13:19:42.761Z,220
2019-05-09T13:20:53.577Z,200
2019-05-09T13:22:08.072Z,185
2019-05-09T13:23:20.445Z,175
2019-05-09T13:24:30.828Z,165
2019-05-09T13:25:42.916Z,155
2019-05-09T13:26:55.268Z,155
2019-05-09T13:28:10.352Z,165
2019-05-09T13:29:20.353Z,170
2019-05-09T13:30:32.983Z,170
2019-05-09T13:31:48.079Z,175
2019-05-09T13:32:58.366Z,195
2019-05-09T13:34:10.533Z,220
2019-05-09T13:35:24.208Z,250
2019-05-09T13:36:35.809Z,270
2019-05-09T13:37:48.998Z,300
2019-05-09T13:39:13.488Z,335
2019-05-09T13:40:29.016Z,365
2019-05-09T13:41:40.077Z,405
2019-05-09T13:42:51.826Z,450
2019-05-09T13:44:20.421Z,520
2019-05-09T13:45:31.072Z,600
2019-05-09T13:46:43.502Z,690
2019-05-09T13:47:57.888Z,795
2019-05-09T13:49:24.265Z,890
2019-05-09T13:50:35.500Z,1140
2019-05-09T13:52:12.686Z,1145
2019-05-09T13:53:23.803Z,1375
2019-05-09T13:54:38.055Z,3060
2019-05-09T13:55:50.424Z,3115
2019-05-09T13:57:11.161Z,2490
2019-05-09T13:58:24.184Z,2765
2019-05-09T13:59:37.492Z,2895
2019-05-09T14:01:09.907Z,705
2019-05-09T14:02:21.323Z,615
2019-05-09T14:03:32.963Z,580
2019-05-09T14:04:44.523Z,575
2019-05-09T14:05:55.343Z,575
2019-05-09T14:07:07.943Z,575
2019-05-09T14:08:24.133Z,595
2019-05-09T14:09:38.478Z,625
2019-05-09T14:10:50.799Z,670
2019-05-09T14:12:03.744Z,890
2019-05-09T14:13:27.907Z,1300
2019-05-09T14:14:40.400Z,2645
2019-05-09T14:15:57.586Z,2740
2019-05-09T14:17:13.818Z,2485
2019-05-09T14:18:26.284Z,2555
2019-05-09T14:19:57.548Z,980
2019-05-09T14:21:10.086Z,600
2019-05-09T14:22:22.570Z,535
2019-05-09T14:24:16.321Z,525
2019-05-09T14:25:31.598Z,525
2019-05-09T14:26:41.609Z,530
2019-05-09T14:27:57.358Z,550
2019-05-09T14:29:12.053Z,570
2019-05-09T14:30:24.631Z,590
2019-05-09T14:31:43.717Z,620
2019-05-09T14:32:56.847Z,680
2019-05-09T14:34:08.527Z,945
2019-05-09T14:35:20.634Z,975
2019-05-09T14:36:32.595Z,2715
2019-05-09T14:37:43.530Z,2515
2019-05-09T14:38:57.970Z,2325
2019-05-09T14:40:17.553Z,505
2019-05-09T14:41:30.189Z,405
2019-05-09T14:42:42.852Z,375
2019-05-09T14:43:55.529Z,370
2019-05-09T14:45:08.486Z,365
2019-05-09T14:46:20.676Z,370
2019-05-09T14:47:32.658Z,370
2019-05-09T14:48:42.417Z,375
2019-05-09T14:50:01.677Z,385
2019-05-09T14:51:12.647Z,395
2019-05-09T14:52:22.650Z,400
2019-05-09T14:53:35.663Z,395
2019-05-09T14:54:51.206Z,405
2019-05-09T14:56:03.779Z,420
2019-05-09T14:57:17.497Z,440
2019-05-09T14:58:28.821Z,470
2019-05-09T14:59:40.856Z,505
2019-05-09T15:00:52.904Z,1415
2019-05-09T15:02:08.747Z,620
2019-05-09T15:03:21.418Z,730
2019-05-09T15:04:32.472Z,980
2019-05-09T15:05:42.791Z,2180
2019-05-09T15:06:53.707Z,2595
2019-05-09T15:08:06.329Z,1870
2019-05-09T15:09:20.564Z,895
2019-05-09T15:10:30.590Z,1035
2019-05-09T15:11:44.209Z,2305
2019-05-09T15:12:58.282Z,2545
2019-05-09T15:14:10.889Z,1505
2019-05-09T15:15:23.184Z,2235
2019-05-09T15:16:35.532Z,620
2019-05-09T15:17:45.550Z,595
2019-05-09T15:19:00.730Z,575
2019-05-09T15:20:13.516Z,555
2019-05-09T15:21:26.206Z,545
2019-05-09T15:22:38.814Z,550
2019-05-09T15:23:50.608Z,575
2019-05-09T15:25:01.581Z,625
2019-05-09T15:26:12.302Z,1135
2019-05-09T15:27:27.281Z,1055
2019-05-09T15:28:41.087Z,1060
2019-05-09T15:29:53.527Z,2420
2019-05-09T15:31:08.817Z,2380
2019-05-09T15:32:23.136Z,1845
2019-05-09T15:33:34.784Z,2340
2019-05-09T15:34:45.236Z,2350
2019-05-09T15:35:58.567Z,1145
2019-05-09T15:37:11.190Z,2450
2019-05-09T15:38:24.959Z,2495
2019-05-09T15:39:38.053Z,980
2019-05-09T15:40:50.599Z,1600
2019-05-09T15:42:02.686Z,2460
2019-05-09T15:43:15.425Z,2070
2019-05-09T15:44:28.192Z,1730
2019-05-09T15:45:40.731Z,695
2019-05-09T15:46:51.129Z,660
2019-05-09T15:48:03.204Z,560
2019-05-09T15:49:14.987Z,530
2019-05-09T15:50:32.739Z,510
2019-05-09T15:51:43.442Z,620
2019-05-09T15:52:53.552Z,1590
2019-05-09T15:54:04.817Z,760
2019-05-09T15:55:17.697Z,735
2019-05-09T15:56:31.257Z,1175
2019-05-09T15:57:42.457Z,945
2019-05-09T15:58:53.912Z,655
2019-05-09T16:00:08.209Z,1330
2019-05-09T16:01:20.703Z,895
2019-05-09T16:02:39.000Z,680
2019-05-09T16:03:51.120Z,685
2019-05-09T16:05:03.331Z,605
2019-05-09T16:06:19.001Z,480
2019-05-09T16:07:30.982Z,460
2019-05-09T16:08:42.829Z,390
2019-05-09T16:09:57.470Z,355
2019-05-09T16:11:08.658Z,340
2019-05-09T16:12:20.947Z,375
2019-05-09T16:13:33.259Z,355
2019-05-09T16:14:45.274Z,365
2019-05-09T16:15:59.820Z,395
2019-05-09T16:17:10.377Z,425
2019-05-09T16:18:22.981Z,450
2019-05-09T16:19:33.024Z,450
2019-05-09T16:20:51.140Z,475
2019-05-09T16:22:02.055Z,530
2019-05-09T16:23:18.245Z,525
2019-05-09T16:24:30.603Z,550
2019-05-09T16:25:43.464Z,800
2019-05-09T16:26:57.792Z,1055
2019-05-09T16:28:10.594Z,1800
2019-05-09T16:29:22.823Z,1785
2019-05-09T16:30:34.749Z,1635
2019-05-09T16:31:48.041Z,630
2019-05-09T16:32:58.549Z,510
2019-05-09T16:34:11.802Z,460
2019-05-09T16:35:23.065Z,425
2019-05-09T16:36:35.490Z,400
2019-05-09T16:38:15.764Z,445
2019-05-09T16:39:27.932Z,500
2019-05-09T16:40:38.553Z,410
2019-05-09T16:41:50.948Z,380
2019-05-09T16:43:02.714Z,360
2019-05-09T16:44:14.982Z,355
2019-05-09T16:45:25.511Z,335
2019-05-09T16:46:40.135Z,325
2019-05-09T16:47:51.070Z,320
2019-05-09T16:49:05.136Z,320
2019-05-09T16:50:20.463Z,315
2019-05-09T16:51:31.115Z,310
2019-05-09T16:52:51.142Z,310
2019-05-09T16:54:03.255Z,305
2019-05-09T16:55:15.853Z,295
2019-05-09T16:56:28.671Z,315
2019-05-09T16:57:40.158Z,335
2019-05-09T16:58:50.227Z,320
2019-05-09T17:00:00.447Z,305
2019-05-09T17:01:13.038Z,300
2019-05-09T17:02:37.945Z,330
2019-05-09T17:03:47.863Z,1220